Time,TemperatureF,DewpointF,PressureIn,WindDirection,WindDirectionDegrees,WindSpeedMPH,WindSpeedGustMPH,Humidity,HourlyPrecipIn,Conditions,Clouds,dailyrainin,SoftwareType,DateUTC
2013-05-23 00:03:00,63.0,62.0,29.79,SSW,205,0.0,2.0,96,0.00,,,0.00,,2013-05-23 04:03:00,
2013-05-23 00:12:00,63.0,62.0,29.79,SSW,205,0.0,2.0,96,0.00,,,0.00,,2013-05-23 04:12:00,
2013-05-23 00:22:00,63.0,62.0,29.79,East,91,0.0,2.0,96,0.00,,,0.00,,2013-05-23 04:22:00,
2013-05-23 00:33:00,63.0,62.0,29.78,East,92,0.0,1.0,96,0.00,,,0.00,,2013-05-23 04:33:00,
2013-05-23 00:43:00,63.0,62.0,29.78,East,92,0.0,1.0,96,0.00,,,0.00,,2013-05-23 04:43:00,
2013-05-23 00:52:00,63.0,62.0,29.78,East,92,0.0,1.0,96,0.00,,,0.00,,2013-05-23 04:52:00,
2013-05-23 01:02:00,63.0,62.0,29.78,North,355,2.0,5.0,96,0.00,,,0.00,,2013-05-23 05:02:00,
2013-05-23 01:11:00,63.0,62.0,29.78,North,355,2.0,5.0,96,0.00,,,0.00,,2013-05-23 05:11:00,
2013-05-23 01:22:00,62.0,61.0,29.78,NNE,27,1.0,4.0,96,0.00,,,0.00,,2013-05-23 05:22:00,
2013-05-23 01:32:00,62.0,61.0,29.76,North,350,4.0,6.0,96,0.00,,,0.00,,2013-05-23 05:32:00,
2013-05-23 01:42:00,62.0,61.0,29.78,NNW,340,2.0,7.0,96,0.00,,,0.00,,2013-05-23 05:42:00,
2013-05-23 01:52:00,62.0,61.0,29.78,NNW,340,2.0,7.0,96,0.00,,,0.00,,2013-05-23 05:52:00,
2013-05-23 02:02:00,63.0,62.0,29.78,WNW,296,1.0,6.0,97,0.15,,,0.15,,2013-05-23 06:02:00,
2013-05-23 02:12:00,63.0,62.0,29.78,WNW,296,1.0,6.0,97,0.15,,,0.15,,2013-05-23 06:12:00,
2013-05-23 02:21:00,63.0,62.0,29.78,SW,215,5.0,10.0,97,0.20,,,0.20,,2013-05-23 06:21:00,
2013-05-23 02:32:00,63.0,62.0,29.78,South,186,0.0,7.0,97,0.26,,,0.26,,2013-05-23 06:32:00,
2013-05-23 02:42:00,63.0,62.0,29.78,South,186,0.0,7.0,97,0.26,,,0.26,,2013-05-23 06:42:00,
2013-05-23 02:52:00,63.0,62.0,29.78,North,355,0.0,9.0,97,0.26,,,0.26,,2013-05-23 06:52:00,
2013-05-23 03:02:00,63.0,62.0,29.77,North,5,2.0,12.0,97,0.13,,,0.26,,2013-05-23 07:02:00,
2013-05-23 03:11:00,63.0,62.0,29.77,North,5,2.0,12.0,97,0.13,,,0.26,,2013-05-23 07:11:00,
2013-05-23 03:22:00,62.0,61.0,29.77,NNW,333,2.0,5.0,97,0.06,,,0.26,,2013-05-23 07:22:00,
2013-05-23 03:32:00,62.0,61.0,29.77,NNW,333,1.0,3.0,97,0.00,,,0.00,,2013-05-23 07:32:00,
2013-05-23 03:42:00,62.0,61.0,29.77,NNW,333,1.0,3.0,97,0.00,,,0.00,,2013-05-23 07:42:00,
2013-05-23 03:59:00,62.0,61.0,29.75,WNW,287,0.0,7.0,97,0.00,,,0.00,,2013-05-23 07:59:00,
2013-05-23 04:11:00,62.0,61.0,29.75,WNW,287,0.0,7.0,97,0.00,,,0.00,,2013-05-23 08:11:00,
2013-05-23 04:22:00,61.0,60.0,29.77,North,9,0.0,4.0,97,0.00,,,0.00,,2013-05-23 08:22:00,
2013-05-23 04:32:00,61.0,60.0,29.77,NW,317,0.0,6.0,97,0.00,,,0.00,,2013-05-23 08:32:00,
2013-05-23 04:42:00,61.0,60.0,29.77,NW,317,0.0,6.0,97,0.00,,,0.00,,2013-05-23 08:42:00,
2013-05-23 04:52:00,61.0,60.0,29.76,North,355,1.0,5.0,97,0.00,,,0.00,,2013-05-23 08:52:00,
2013-05-23 05:02:00,60.0,59.0,29.77,North,355,0.0,4.0,97,0.00,,,0.00,,2013-05-23 09:02:00,
2013-05-23 05:11:00,60.0,59.0,29.77,North,355,0.0,4.0,97,0.00,,,0.00,,2013-05-23 09:11:00,
2013-05-23 05:22:00,60.0,59.0,29.77,NE,43,3.0,7.0,97,0.00,,,0.00,,2013-05-23 09:22:00,
2013-05-23 05:33:00,60.0,59.0,29.77,North,350,0.0,6.0,97,0.00,,,0.00,,2013-05-23 09:33:00,
2013-05-23 05:42:00,60.0,59.0,29.77,North,350,0.0,6.0,97,0.00,,,0.00,,2013-05-23 09:42:00,
2013-05-23 05:53:00,60.0,59.0,29.77,NW,323,0.0,5.0,97,0.00,,,0.00,,2013-05-23 09:53:00,
2013-05-23 06:03:00,60.0,59.0,29.77,NW,323,0.0,5.0,97,0.00,,,0.00,,2013-05-23 10:03:00,
2013-05-23 06:13:00,60.0,59.0,29.77,NW,323,0.0,5.0,97,0.00,,,0.00,,2013-05-23 10:13:00,
2013-05-23 06:22:00,60.0,59.0,29.78,NW,323,0.0,0.0,97,0.00,,,0.00,,2013-05-23 10:22:00,
2013-05-23 06:32:00,60.0,59.0,29.78,NW,323,0.0,1.0,97,0.00,,,0.00,,2013-05-23 10:32:00,
2013-05-23 06:42:00,60.0,59.0,29.78,NW,323,0.0,1.0,97,0.00,,,0.00,,2013-05-23 10:42:00,
2013-05-23 06:52:00,60.0,59.0,29.78,North,355,0.0,3.0,97,0.00,,,0.00,,2013-05-23 10:52:00,
2013-05-23 07:02:00,61.0,60.0,29.78,North,355,0.0,3.0,97,0.00,,,0.00,,2013-05-23 11:02:00,
2013-05-23 07:11:00,61.0,60.0,29.78,North,355,0.0,3.0,97,0.00,,,0.00,,2013-05-23 11:11:00,
2013-05-23 07:22:00,61.0,60.0,29.78,North,355,0.0,2.0,97,0.00,,,0.00,,2013-05-23 11:22:00,
2013-05-23 07:32:00,61.0,60.0,29.79,North,355,0.0,0.0,97,0.00,,,0.00,,2013-05-23 11:32:00,
2013-05-23 07:42:00,61.0,60.0,29.79,North,355,0.0,0.0,97,0.00,,,0.00,,2013-05-23 11:42:00,
2013-05-23 07:52:00,62.0,61.0,29.78,NE,48,1.0,5.0,98,0.00,,,0.00,,2013-05-23 11:52:00,
2013-05-23 08:01:00,62.0,61.0,29.78,North,349,0.0,2.0,98,0.00,,,0.00,,2013-05-23 12:01:00,
2013-05-23 08:12:00,62.0,61.0,29.78,North,349,0.0,2.0,98,0.00,,,0.00,,2013-05-23 12:12:00,
2013-05-23 08:21:00,63.0,62.0,29.78,North,349,0.0,4.0,97,0.00,,,0.00,,2013-05-23 12:21:00,
2013-05-23 08:32:00,64.0,63.0,29.78,North,349,0.0,1.0,98,0.00,,,0.00,,2013-05-23 12:32:00,
2013-05-23 08:42:00,64.0,63.0,29.78,North,349,0.0,1.0,98,0.00,,,0.00,,2013-05-23 12:42:00,
2013-05-23 08:52:00,65.0,64.0,29.78,North,349,0.0,2.0,97,0.00,,,0.00,,2013-05-23 12:52:00,
2013-05-23 09:01:00,66.0,65.0,29.78,North,349,0.0,2.0,97,0.01,,,0.01,,2013-05-23 13:01:00,
2013-05-23 09:11:00,66.0,65.0,29.78,North,349,0.0,2.0,97,0.01,,,0.01,,2013-05-23 13:11:00,
2013-05-23 09:22:00,66.0,65.0,29.78,North,349,0.0,4.0,96,0.01,,,0.01,,2013-05-23 13:22:00,
2013-05-23 09:32:00,68.0,67.0,29.78,North,349,0.0,0.0,95,0.00,,,0.01,,2013-05-23 13:32:00,
2013-05-23 09:42:00,68.0,67.0,29.78,North,349,0.0,0.0,95,0.00,,,0.01,,2013-05-23 13:42:00,
2013-05-23 09:52:00,69.0,67.0,29.77,NNW,346,0.0,4.0,92,0.00,,,0.01,,2013-05-23 13:52:00,
2013-05-23 10:02:00,68.0,65.0,29.78,North,360,0.0,4.0,90,0.00,,,0.00,,2013-05-23 14:02:00,
2013-05-23 10:11:00,68.0,65.0,29.78,North,360,0.0,4.0,90,0.00,,,0.00,,2013-05-23 14:11:00,
2013-05-23 10:21:00,68.0,63.0,29.79,SW,229,1.0,8.0,84,0.00,,,0.00,,2013-05-23 14:21:00,
2013-05-23 10:32:00,69.0,63.0,29.79,WSW,249,2.0,11.0,81,0.00,,,0.00,,2013-05-23 14:32:00,
2013-05-23 10:42:00,69.0,63.0,29.79,WSW,249,2.0,11.0,81,0.00,,,0.00,,2013-05-23 14:42:00,
2013-05-23 10:52:00,70.0,64.0,29.78,West,260,2.0,9.0,81,0.00,,,0.00,,2013-05-23 14:52:00,
2013-05-23 11:01:00,71.0,64.0,29.78,SSE,165,4.0,7.0,79,0.00,,,0.00,,2013-05-23 15:01:00,
2013-05-23 11:11:00,71.0,64.0,29.78,SSE,165,4.0,7.0,79,0.00,,,0.00,,2013-05-23 15:11:00,
2013-05-23 11:22:00,72.0,65.0,29.77,SW,229,6.0,10.0,78,0.00,,,0.00,,2013-05-23 15:22:00,
2013-05-23 11:33:00,73.0,65.0,29.77,West,269,7.0,9.0,75,0.00,,,0.00,,2013-05-23 15:33:00,
2013-05-23 11:42:00,73.0,65.0,29.77,West,269,7.0,9.0,75,0.00,,,0.00,,2013-05-23 15:42:00,
2013-05-23 11:53:00,75.0,65.0,29.77,South,172,6.0,10.0,71,0.00,,,0.00,,2013-05-23 15:53:00,
2013-05-23 12:03:00,76.0,65.0,29.77,WSW,248,5.0,9.0,70,0.00,,,0.00,,2013-05-23 16:03:00,
2013-05-23 12:12:00,76.0,65.0,29.77,WSW,248,5.0,9.0,70,0.00,,,0.00,,2013-05-23 16:12:00,
2013-05-23 12:23:00,77.0,65.0,29.77,WSW,248,3.0,9.0,66,0.00,,,0.00,,2013-05-23 16:23:00,
2013-05-23 12:34:00,77.0,67.0,29.77,SW,228,0.0,5.0,71,0.00,,,0.00,,2013-05-23 16:34:00,
2013-05-23 12:42:00,77.0,67.0,29.77,SW,228,0.0,5.0,71,0.00,,,0.00,,2013-05-23 16:42:00,
2013-05-23 12:52:00,75.0,65.0,29.77,WSW,247,5.0,9.0,71,0.00,,,0.00,,2013-05-23 16:52:00,
2013-05-23 13:03:00,75.0,63.0,29.77,SSW,205,5.0,14.0,67,0.00,,,0.00,,2013-05-23 17:03:00,
2013-05-23 13:11:00,75.0,63.0,29.77,SSW,205,5.0,14.0,67,0.00,,,0.00,,2013-05-23 17:11:00,
2013-05-23 13:23:00,75.0,63.0,29.77,WNW,298,7.0,12.0,67,0.00,,,0.00,,2013-05-23 17:23:00,
2013-05-23 13:33:00,75.0,64.0,29.76,SSE,163,6.0,10.0,68,0.00,,,0.00,,2013-05-23 17:33:00,
2013-05-23 13:43:00,75.0,64.0,29.76,SSE,163,6.0,10.0,68,0.00,,,0.00,,2013-05-23 17:43:00,
2013-05-23 13:53:00,75.0,65.0,29.76,SW,227,6.0,14.0,70,0.00,,,0.00,,2013-05-23 17:53:00,
2013-05-23 14:01:00,75.0,65.0,29.75,WSW,244,5.0,10.0,70,0.00,,,0.00,,2013-05-23 18:01:00,
2013-05-23 14:11:00,75.0,65.0,29.75,WSW,244,5.0,10.0,70,0.00,,,0.00,,2013-05-23 18:11:00,
2013-05-23 14:22:00,75.0,64.0,29.74,SSW,198,7.0,15.0,68,0.00,,,0.00,,2013-05-23 18:22:00,
2013-05-23 14:32:00,76.0,64.0,29.74,WSW,249,8.0,19.0,66,0.00,,,0.00,,2013-05-23 18:32:00,
2013-05-23 14:42:00,76.0,64.0,29.74,WSW,249,8.0,19.0,66,0.00,,,0.00,,2013-05-23 18:42:00,
2013-05-23 14:52:00,76.0,63.0,29.73,WSW,240,8.0,16.0,65,0.00,,,0.00,,2013-05-23 18:52:00,
2013-05-23 15:01:00,76.0,63.0,29.73,SW,231,8.0,14.0,64,0.00,,,0.00,,2013-05-23 19:01:00,
2013-05-23 15:11:00,76.0,63.0,29.73,SW,231,8.0,14.0,64,0.00,,,0.00,,2013-05-23 19:11:00,
2013-05-23 15:21:00,76.0,63.0,29.72,SW,217,7.0,13.0,64,0.00,,,0.00,,2013-05-23 19:21:00,
2013-05-23 15:32:00,76.0,63.0,29.72,WSW,249,7.0,12.0,64,0.00,,,0.00,,2013-05-23 19:32:00,
2013-05-23 15:42:00,76.0,62.0,29.72,South,186,6.0,14.0,63,0.00,,,0.00,,2013-05-23 19:42:00,
2013-05-23 15:52:00,76.0,62.0,29.72,South,186,6.0,14.0,63,0.00,,,0.00,,2013-05-23 19:52:00,
2013-05-23 16:02:00,76.0,62.0,29.72,SSW,211,4.0,14.0,62,0.00,,,0.00,,2013-05-23 20:02:00,
2013-05-23 16:11:00,76.0,62.0,29.72,SSW,211,4.0,14.0,62,0.00,,,0.00,,2013-05-23 20:11:00,
2013-05-23 16:21:00,76.0,62.0,29.72,SW,218,7.0,15.0,61,0.00,,,0.00,,2013-05-23 20:21:00,
2013-05-23 16:32:00,76.0,62.0,29.72,SW,235,6.0,18.0,62,0.00,,,0.00,,2013-05-23 20:32:00,
2013-05-23 16:42:00,76.0,62.0,29.72,SW,235,6.0,18.0,62,0.00,,,0.00,,2013-05-23 20:42:00,
2013-05-23 16:52:00,76.0,62.0,29.72,South,173,9.0,19.0,62,0.00,,,0.00,,2013-05-23 20:52:00,
2013-05-23 17:01:00,76.0,62.0,29.71,SSW,198,9.0,20.0,63,0.00,,,0.00,,2013-05-23 21:01:00,
2013-05-23 17:11:00,76.0,62.0,29.71,SSW,198,9.0,20.0,63,0.00,,,0.00,,2013-05-23 21:11:00,
2013-05-23 17:22:00,76.0,62.0,29.71,SSW,200,8.0,13.0,63,0.00,,,0.00,,2013-05-23 21:22:00,
2013-05-23 17:32:00,76.0,62.0,29.71,SW,225,8.0,13.0,63,0.00,,,0.00,,2013-05-23 21:32:00,
2013-05-23 17:43:00,76.0,62.0,29.71,SW,225,8.0,13.0,63,0.00,,,0.00,,2013-05-23 21:43:00,
2013-05-23 17:53:00,76.0,62.0,29.71,SW,219,8.0,15.0,61,0.00,,,0.00,,2013-05-23 21:53:00,
2013-05-23 18:03:00,76.0,62.0,29.71,SW,223,4.0,15.0,62,0.00,,,0.00,,2013-05-23 22:03:00,
2013-05-23 18:12:00,76.0,62.0,29.71,SW,223,4.0,15.0,62,0.00,,,0.00,,2013-05-23 22:12:00,
2013-05-23 18:22:00,76.0,62.0,29.71,SSW,194,9.0,20.0,63,0.00,,,0.00,,2013-05-23 22:22:00,
2013-05-23 18:33:00,75.0,62.0,29.71,WSW,254,10.0,16.0,65,0.00,,,0.00,,2013-05-23 22:33:00,
2013-05-23 18:42:00,75.0,62.0,29.71,WSW,254,10.0,16.0,65,0.00,,,0.00,,2013-05-23 22:42:00,
2013-05-23 18:52:00,74.0,62.0,29.71,SSW,206,6.0,15.0,66,0.00,,,0.00,,2013-05-23 22:52:00,
2013-05-23 19:02:00,74.0,63.0,29.72,South,172,8.0,16.0,69,0.00,,,0.00,,2013-05-23 23:02:00,
2013-05-23 19:11:00,74.0,63.0,29.72,South,172,8.0,16.0,69,0.00,,,0.00,,2013-05-23 23:11:00,
2013-05-23 19:21:00,72.0,62.0,29.72,SSE,164,6.0,14.0,72,0.00,,,0.00,,2013-05-23 23:21:00,
2013-05-23 19:32:00,71.0,63.0,29.72,South,190,4.0,11.0,75,0.00,,,0.00,,2013-05-23 23:32:00,
2013-05-23 19:42:00,71.0,63.0,29.72,South,190,4.0,11.0,75,0.00,,,0.00,,2013-05-23 23:42:00,
2013-05-23 19:52:00,71.0,63.0,29.72,South,185,3.0,8.0,76,0.00,,,0.00,,2013-05-23 23:52:00,
2013-05-23 20:01:00,70.0,63.0,29.73,SSE,167,5.0,7.0,78,0.00,,,0.00,,2013-05-24 00:01:00,
2013-05-23 20:12:00,70.0,63.0,29.73,SSE,167,5.0,7.0,78,0.00,,,0.00,,2013-05-24 00:12:00,
2013-05-23 20:21:00,69.0,64.0,29.73,South,178,0.0,5.0,83,0.01,,,0.01,,2013-05-24 00:21:00,
2013-05-23 20:32:00,68.0,63.0,29.73,NNW,343,1.0,5.0,85,0.01,,,0.01,,2013-05-24 00:32:00,
2013-05-23 20:42:00,68.0,63.0,29.73,NNW,343,1.0,5.0,85,0.01,,,0.01,,2013-05-24 00:42:00,
2013-05-23 20:52:00,67.0,63.0,29.72,NNW,342,0.0,2.0,87,0.01,,,0.01,,2013-05-24 00:52:00,
2013-05-23 21:01:00,66.0,63.0,29.73,NNW,342,0.0,1.0,89,0.01,,,0.01,,2013-05-24 01:01:00,
2013-05-23 21:12:00,66.0,63.0,29.73,NNW,342,0.0,1.0,89,0.01,,,0.01,,2013-05-24 01:12:00,
2013-05-23 21:22:00,65.0,62.0,29.72,NNW,342,0.0,2.0,91,0.00,,,0.01,,2013-05-24 01:22:00,
2013-05-23 21:32:00,65.0,63.0,29.72,NNW,343,0.0,1.0,92,0.01,,,0.02,,2013-05-24 01:32:00,
2013-05-23 21:42:00,65.0,63.0,29.72,NNW,343,0.0,1.0,92,0.01,,,0.02,,2013-05-24 01:42:00,
2013-05-23 21:52:00,65.0,63.0,29.74,SW,223,4.0,9.0,93,0.03,,,0.04,,2013-05-24 01:52:00,
2013-05-23 22:02:00,64.0,62.0,29.75,WSW,242,3.0,7.0,93,0.03,,,0.04,,2013-05-24 02:02:00,
2013-05-23 22:12:00,64.0,62.0,29.75,WSW,242,3.0,7.0,93,0.03,,,0.04,,2013-05-24 02:12:00,
2013-05-23 22:22:00,64.0,61.0,29.75,South,180,2.0,6.0,91,0.10,,,0.11,,2013-05-24 02:22:00,
2013-05-23 22:32:00,63.0,61.0,29.75,SW,220,1.0,7.0,93,0.12,,,0.14,,2013-05-24 02:32:00,
2013-05-23 22:42:00,63.0,61.0,29.75,SW,220,1.0,7.0,93,0.12,,,0.14,,2013-05-24 02:42:00,
2013-05-23 22:52:00,63.0,61.0,29.75,SW,220,0.0,1.0,93,0.14,,,0.18,,2013-05-24 02:52:00,
2013-05-23 23:02:00,62.0,60.0,29.75,SW,220,0.0,4.0,94,0.20,,,0.24,,2013-05-24 03:02:00,
2013-05-23 23:11:00,62.0,60.0,29.74,SW,220,0.0,4.0,94,0.21,,,0.32,,2013-05-24 03:11:00,
2013-05-23 23:22:00,62.0,60.0,29.74,SW,220,0.0,4.0,94,0.21,,,0.32,,2013-05-24 03:22:00,
2013-05-23 23:33:00,62.0,60.0,29.75,SW,219,0.0,0.0,94,0.21,,,0.35,,2013-05-24 03:33:00,
2013-05-23 23:42:00,62.0,60.0,29.75,SW,219,0.0,0.0,94,0.21,,,0.35,,2013-05-24 03:42:00,
2013-05-23 23:53:00,62.0,61.0,29.74,SW,220,0.0,0.0,95,0.23,,,0.41,,2013-05-24 03:53:00,